Terminal Aerodrome Forecast
Issued by NWS Wilmington, OH

Current Version | Previous Version | Graphics & Text | Print | Product List | Glossary On
Versions: 1 2 3 4 5 6 7 8 9 10 11 12 13 14 15 16 17 18 19
000
FTUS41 KILN 221240 AAA
TAFDAY
TAF AMD
KDAY 221240Z 2213/2312 07006KT P6SM SCT060 BKN150
     FM222200 06009KT P6SM VCSH OVC090
     FM230500 04009KT 5SM -SHRA OVC015
     FM231000 02009KT 3SM -SHRA OVC008=

USA.gov is the U.S. government's official web portal to all federal, state and local government web resources and services.